Terminal Aerodrome Forecast
Issued by NWS

Current Version | Previous Version | Graphics & Text | Print | Product List | Glossary On
Versions: 1 2 3 4 5 6 7 8 9 10 11 12 13 14 15 16 17
931
FTUS41 KPBZ 250526
TAFHLG
TAF
KHLG 250526Z 2506/2606 29004KT P6SM BKN035
     FM250800 VRB03KT P6SM BKN030
      TEMPO 2509/2512 BKN015
     FM251500 00000KT P6SM BKN035
     FM251800 34006KT P6SM SCT045=

USA.gov is the U.S. government's official web portal to all federal, state and local government web resources and services.